Isle of Bute, United Kingdom
Current Conditions -  °F | °C
As of 2:50 AM on Saturday 25 Oct 2014 (Local Time) from EGPF Reporting Station
Broken Clouds Broken Clouds  
Wind Chill: 10°   Ceiling: 3200
Heat Index: 10°   Visibility: 6mi
Dew Point:   Wind: 16mph
Humidity: 87%   Direction: 210°SSW
Pressure: 29.71"   Gusts: NA
Location:  55.84°N, 5.05°W
Report Text: EGPF 250150Z AUTO 21014KT 9999 SCT022 BKN032 10/08 Q1006
Loading
Personal Weather Stations






























Interactive Weather Map
Tropical Storm Tracking
New forecast layout! Learn more

10-Day Weather Forecast

Advertisements
Track Severe Weather on mobile